createdAt,value
2022-07-29T00:01:09.491Z,21.26
2022-07-29T00:03:51.931Z,21.24
2022-07-29T00:06:22.637Z,21.24
2022-07-29T00:08:57.585Z,21.18
2022-07-29T00:11:24.950Z,21.10
2022-07-29T00:13:52.153Z,21.10
2022-07-29T00:16:19.461Z,21.11
2022-07-29T00:18:47.003Z,21.08
2022-07-29T00:21:14.058Z,21.05
2022-07-29T00:23:41.355Z,21.10
2022-07-29T00:26:08.784Z,21.06
2022-07-29T00:28:36.207Z,21.01
2022-07-29T00:31:12.181Z,21.00
2022-07-29T00:33:40.407Z,21.00
2022-07-29T00:36:07.868Z,20.99
2022-07-29T00:38:35.076Z,20.90
2022-07-29T00:41:02.419Z,20.89
2022-07-29T00:43:29.537Z,20.84
2022-07-29T00:45:56.699Z,20.83
2022-07-29T00:48:24.082Z,20.86
2022-07-29T00:50:52.594Z,20.93
2022-07-29T00:53:21.491Z,20.90
2022-07-29T00:56:04.352Z,20.86
2022-07-29T00:58:33.496Z,20.79
2022-07-29T01:01:04.627Z,20.77
2022-07-29T01:03:31.839Z,20.87
2022-07-29T01:05:59.769Z,20.70
2022-07-29T01:08:27.059Z,20.65
2022-07-29T01:10:55.365Z,20.56
2022-07-29T01:13:28.964Z,20.62
2022-07-29T01:16:21.096Z,20.54
2022-07-29T01:18:56.087Z,20.51
2022-07-29T01:21:42.370Z,20.50
2022-07-29T01:24:27.224Z,20.40
2022-07-29T01:27:16.861Z,20.37
2022-07-29T01:29:53.716Z,20.28
2022-07-29T01:32:28.760Z,20.33
2022-07-29T01:35:03.225Z,20.34
2022-07-29T01:37:52.653Z,20.35
2022-07-29T01:40:52.467Z,20.29
2022-07-29T01:43:34.182Z,20.22
2022-07-29T01:46:10.381Z,20.16
2022-07-29T01:48:46.959Z,20.29
2022-07-29T01:51:28.356Z,20.30
2022-07-29T01:54:09.751Z,20.34
2022-07-29T01:56:39.559Z,20.37
2022-07-29T01:59:09.581Z,20.30
2022-07-29T02:01:49.770Z,20.34
2022-07-29T02:04:29.746Z,20.16
2022-07-29T02:07:10.401Z,20.47
2022-07-29T02:09:39.195Z,20.43
2022-07-29T02:12:08.433Z,20.49
2022-07-29T02:14:40.564Z,20.53
2022-07-29T02:17:08.779Z,20.45
2022-07-29T02:19:39.156Z,20.31
2022-07-29T02:22:08.149Z,20.26
2022-07-29T02:24:42.029Z,20.24
2022-07-29T02:27:16.689Z,20.18
2022-07-29T02:29:52.008Z,20.21
2022-07-29T02:32:31.619Z,20.15
2022-07-29T02:35:01.089Z,20.09
2022-07-29T02:37:30.272Z,20.09
2022-07-29T02:39:59.729Z,20.04
2022-07-29T02:42:29.174Z,19.96
2022-07-29T02:44:56.966Z,19.98
2022-07-29T02:47:42.737Z,20.00
2022-07-29T02:50:26.680Z,20.01
2022-07-29T02:53:25.841Z,20.02
2022-07-29T02:55:58.430Z,20.00
2022-07-29T02:58:30.406Z,19.98
2022-07-29T03:01:10.108Z,19.91
2022-07-29T03:03:39.307Z,19.87
2022-07-29T03:06:09.635Z,19.80
2022-07-29T03:08:58.888Z,19.80
2022-07-29T03:11:42.171Z,19.79
2022-07-29T03:14:21.046Z,19.80
2022-07-29T03:19:47.033Z,19.76
2022-07-29T03:22:15.361Z,19.72
2022-07-29T03:24:46.422Z,19.72
2022-07-29T03:27:14.488Z,19.76
2022-07-29T03:29:41.640Z,19.83
2022-07-29T03:32:17.569Z,19.77
2022-07-29T03:34:54.247Z,19.66
2022-07-29T03:37:24.509Z,19.60
2022-07-29T03:39:53.581Z,19.59
2022-07-29T03:42:25.275Z,19.60
2022-07-29T03:44:58.205Z,19.55
2022-07-29T03:47:49.580Z,19.53
2022-07-29T03:50:19.317Z,19.60
2022-07-29T03:52:47.239Z,19.59
2022-07-29T03:55:19.484Z,19.66
2022-07-29T03:57:55.692Z,19.72
2022-07-29T04:00:31.854Z,19.72
2022-07-29T04:03:10.661Z,19.71
2022-07-29T04:05:39.783Z,19.94
2022-07-29T04:08:07.478Z,19.88
2022-07-29T04:10:35.840Z,20.04
2022-07-29T04:13:03.582Z,20.07
2022-07-29T04:15:31.885Z,20.08
2022-07-29T04:18:00.249Z,20.25
2022-07-29T04:20:31.840Z,20.34
2022-07-29T04:22:58.781Z,20.32
2022-07-29T04:25:26.219Z,20.39
2022-07-29T04:28:02.600Z,20.46
2022-07-29T04:30:32.359Z,20.46
2022-07-29T04:33:01.805Z,20.53
2022-07-29T04:35:30.243Z,20.60
2022-07-29T04:38:07.731Z,20.60
2022-07-29T04:40:43.123Z,20.64
2022-07-29T04:43:10.321Z,20.75
2022-07-29T04:45:47.441Z,20.83
2022-07-29T04:48:16.025Z,20.95
2022-07-29T04:50:47.314Z,20.92
2022-07-29T04:53:16.277Z,21.08
2022-07-29T04:55:43.375Z,21.18
2022-07-29T04:58:10.633Z,21.29
2022-07-29T05:00:42.039Z,21.40
2022-07-29T05:03:13.722Z,21.50
2022-07-29T05:05:41.958Z,21.62
2022-07-29T05:08:09.262Z,21.82
2022-07-29T05:10:39.147Z,21.94
2022-07-29T05:13:13.593Z,21.95
2022-07-29T05:15:40.939Z,22.05
2022-07-29T05:18:08.408Z,22.11
2022-07-29T05:20:36.073Z,22.16
2022-07-29T05:23:03.983Z,22.19
2022-07-29T05:25:43.471Z,22.25
2022-07-29T05:28:12.568Z,22.42
2022-07-29T05:30:39.914Z,22.54
2022-07-29T05:33:07.680Z,22.66
2022-07-29T05:35:36.108Z,22.74
2022-07-29T05:38:03.523Z,22.85
2022-07-29T05:40:30.838Z,23.01
2022-07-29T05:42:58.101Z,23.14
2022-07-29T05:45:25.559Z,23.35
2022-07-29T05:47:52.715Z,23.45
2022-07-29T05:50:20.064Z,23.53
2022-07-29T05:52:47.093Z,23.73
2022-07-29T05:55:17.231Z,23.80
2022-07-29T05:57:45.831Z,23.88
2022-07-29T06:00:13.433Z,23.86
2022-07-29T06:02:40.607Z,23.95
2022-07-29T06:05:15.585Z,24.07
2022-07-29T06:07:50.223Z,24.11
2022-07-29T06:10:20.298Z,24.31
2022-07-29T06:12:52.007Z,24.41
2022-07-29T06:15:19.666Z,24.39
2022-07-29T06:17:59.055Z,24.44
2022-07-29T06:20:30.842Z,24.52
2022-07-29T06:22:58.638Z,24.68
2022-07-29T06:25:26.107Z,24.84
2022-07-29T06:27:53.780Z,24.97
2022-07-29T06:30:21.044Z,25.12
2022-07-29T06:32:48.439Z,25.14
2022-07-29T06:38:04.340Z,25.50
2022-07-29T06:41:03.049Z,25.54
2022-07-29T06:43:50.197Z,25.62
2022-07-29T06:46:20.339Z,25.70
2022-07-29T06:48:51.545Z,25.87
2022-07-29T06:51:21.778Z,25.98
2022-07-29T06:54:00.667Z,26.01
2022-07-29T06:56:39.396Z,26.13
2022-07-29T06:59:09.514Z,26.30
2022-07-29T07:01:42.500Z,26.44
2022-07-29T07:04:12.338Z,26.57
2022-07-29T07:06:40.498Z,26.68
2022-07-29T07:09:08.560Z,26.79
2022-07-29T07:11:36.008Z,26.76
2022-07-29T07:14:04.402Z,26.95
2022-07-29T07:16:32.906Z,27.11
2022-07-29T07:19:01.070Z,27.22
2022-07-29T07:21:30.581Z,27.26
2022-07-29T07:23:59.254Z,27.29
2022-07-29T07:26:26.907Z,27.38
2022-07-29T07:28:56.808Z,27.42
2022-07-29T07:31:24.018Z,27.50
2022-07-29T07:33:52.736Z,27.62
2022-07-29T07:36:20.225Z,27.74
2022-07-29T07:38:47.600Z,27.75
2022-07-29T07:41:14.860Z,27.82
2022-07-29T07:43:42.306Z,27.92
2022-07-29T07:46:09.485Z,27.92
2022-07-29T07:48:37.270Z,28.00
2022-07-29T07:51:04.763Z,28.13
2022-07-29T07:53:32.639Z,28.07
2022-07-29T07:56:15.467Z,28.09
2022-07-29T07:58:42.829Z,28.18
2022-07-29T08:01:10.460Z,28.39
2022-07-29T08:03:38.246Z,28.46
2022-07-29T08:06:06.241Z,28.46
2022-07-29T08:08:33.702Z,28.48
2022-07-29T08:11:08.287Z,28.56
2022-07-29T08:13:37.540Z,28.65
2022-07-29T08:16:14.486Z,28.78
2022-07-29T08:18:43.425Z,28.53
2022-07-29T08:21:10.884Z,28.95
2022-07-29T08:24:00.758Z,29.07
2022-07-29T08:26:29.367Z,29.07
2022-07-29T08:28:56.807Z,29.15
2022-07-29T08:31:24.766Z,29.25
2022-07-29T08:33:52.234Z,29.30
2022-07-29T08:36:22.111Z,29.34
2022-07-29T08:38:50.618Z,29.42
2022-07-29T08:41:22.654Z,29.38
2022-07-29T08:43:51.171Z,29.47
2022-07-29T08:46:19.048Z,29.47
2022-07-29T08:48:46.828Z,29.43
2022-07-29T08:51:16.565Z,29.51
2022-07-29T08:53:45.734Z,29.56
2022-07-29T08:56:20.753Z,29.67
2022-07-29T08:58:53.503Z,29.69
2022-07-29T09:01:36.448Z,29.69
2022-07-29T09:04:14.272Z,29.65
2022-07-29T09:06:48.993Z,29.82
2022-07-29T09:09:16.813Z,29.95
2022-07-29T09:11:44.357Z,30.05
2022-07-29T09:14:15.375Z,30.10
2022-07-29T09:16:57.391Z,30.11
2022-07-29T09:19:27.769Z,30.21
2022-07-29T09:21:59.263Z,30.30
2022-07-29T09:24:45.269Z,30.34
2022-07-29T09:27:18.472Z,30.34
2022-07-29T09:29:45.899Z,30.27
2022-07-29T09:32:13.872Z,30.16
2022-07-29T09:34:42.282Z,30.13
2022-07-29T09:37:09.682Z,30.22
2022-07-29T09:39:45.303Z,30.33
2022-07-29T09:42:14.380Z,30.36
2022-07-29T09:44:49.983Z,30.45
2022-07-29T09:47:19.231Z,30.41
2022-07-29T09:49:59.416Z,30.43
2022-07-29T09:52:28.416Z,30.39
2022-07-29T09:55:06.928Z,30.51
2022-07-29T09:57:34.598Z,30.58
2022-07-29T10:00:06.417Z,30.58
2022-07-29T10:02:41.143Z,30.59
2022-07-29T10:05:19.878Z,30.63
2022-07-29T10:07:57.252Z,30.51
2022-07-29T10:10:31.433Z,30.60
2022-07-29T10:17:27.179Z,30.75
2022-07-29T10:19:54.762Z,30.88
2022-07-29T10:22:50.699Z,30.92
2022-07-29T10:25:11.256Z,31.02
2022-07-29T10:27:38.590Z,31.11
2022-07-29T10:30:07.170Z,31.11
2022-07-29T10:32:54.386Z,31.08
2022-07-29T10:35:50.754Z,31.19
2022-07-29T10:38:48.786Z,31.26
2022-07-29T10:42:13.447Z,31.37
2022-07-29T10:44:45.318Z,31.44
2022-07-29T10:47:27.235Z,31.42
2022-07-29T10:50:05.577Z,31.47
2022-07-29T10:52:53.734Z,31.53
2022-07-29T10:55:49.695Z,31.59
2022-07-29T10:58:24.859Z,31.71
2022-07-29T11:00:54.286Z,31.79
2022-07-29T11:03:50.371Z,31.85
2022-07-29T11:06:26.338Z,31.73
2022-07-29T11:09:34.755Z,31.75
2022-07-29T11:12:25.708Z,31.80
2022-07-29T11:15:02.748Z,31.76
2022-07-29T11:17:54.871Z,31.89
2022-07-29T11:20:39.461Z,32.03
2022-07-29T11:23:33.969Z,32.04
2022-07-29T11:26:12.869Z,32.08
2022-07-29T11:29:05.583Z,31.93
2022-07-29T11:31:42.841Z,31.97
2022-07-29T11:34:20.901Z,32.09
2022-07-29T11:37:13.841Z,32.05
2022-07-29T11:39:54.469Z,31.98
2022-07-29T11:42:32.564Z,32.13
2022-07-29T11:45:43.862Z,32.22
2022-07-29T11:48:05.216Z,32.24
2022-07-29T11:50:37.411Z,32.23
2022-07-29T11:53:13.553Z,32.35
2022-07-29T11:55:51.571Z,32.45
2022-07-29T11:58:26.227Z,32.44
2022-07-29T12:00:55.219Z,32.53
2022-07-29T12:03:33.530Z,32.44
2022-07-29T12:06:04.384Z,32.58
2022-07-29T12:08:42.033Z,32.49
2022-07-29T12:11:17.759Z,32.30
2022-07-29T12:13:49.422Z,32.59
2022-07-29T12:16:26.080Z,32.57
2022-07-29T12:19:03.010Z,32.58
2022-07-29T12:21:45.712Z,32.66
2022-07-29T12:24:22.768Z,32.65
2022-07-29T12:27:00.511Z,32.66
2022-07-29T12:29:34.869Z,32.81
2022-07-29T12:32:05.559Z,32.70
2022-07-29T12:34:33.827Z,32.77
2022-07-29T12:37:02.243Z,32.85
2022-07-29T12:39:30.376Z,32.85
2022-07-29T12:42:03.914Z,32.99
2022-07-29T12:44:52.493Z,33.07
2022-07-29T12:47:21.084Z,33.11
2022-07-29T12:49:50.936Z,33.25
2022-07-29T12:52:29.178Z,32.75
2022-07-29T12:54:57.113Z,33.25
2022-07-29T12:57:25.015Z,33.28
2022-07-29T13:00:23.256Z,33.43
2022-07-29T13:03:02.031Z,33.41
2022-07-29T13:05:54.840Z,33.46
2022-07-29T13:08:22.991Z,33.54
2022-07-29T13:10:50.819Z,33.66
2022-07-29T13:13:18.004Z,33.68
2022-07-29T13:15:50.026Z,33.48
2022-07-29T13:18:34.858Z,33.58
2022-07-29T13:21:14.106Z,33.49
2022-07-29T13:23:41.602Z,33.36
2022-07-29T13:26:10.444Z,33.56
2022-07-29T13:28:37.811Z,33.66
2022-07-29T13:31:06.412Z,33.78
2022-07-29T13:33:33.942Z,33.89
2022-07-29T13:36:02.415Z,33.88
2022-07-29T13:38:31.135Z,34.07
2022-07-29T13:40:59.451Z,34.11
2022-07-29T13:43:27.773Z,34.18
2022-07-29T13:45:55.371Z,34.26
2022-07-29T13:48:22.883Z,34.23
2022-07-29T13:50:50.777Z,34.24
2022-07-29T13:53:18.222Z,34.19
2022-07-29T13:55:50.513Z,34.14
2022-07-29T13:58:19.437Z,33.78
2022-07-29T14:00:48.028Z,34.01
2022-07-29T14:03:45.865Z,34.04
2022-07-29T14:06:16.430Z,34.03
2022-07-29T14:08:50.619Z,34.01
2022-07-29T14:11:24.148Z,34.05
2022-07-29T14:13:56.431Z,34.01
2022-07-29T14:16:24.050Z,34.06
2022-07-29T14:18:51.251Z,33.94
2022-07-29T14:21:18.627Z,33.94
2022-07-29T14:23:46.195Z,33.97
2022-07-29T14:26:15.917Z,34.12
2022-07-29T14:28:49.837Z,34.17
2022-07-29T14:31:18.080Z,34.15
2022-07-29T14:33:46.345Z,34.08
2022-07-29T14:36:18.960Z,33.95
2022-07-29T14:38:48.239Z,33.92
2022-07-29T14:41:15.623Z,34.07
2022-07-29T14:43:43.287Z,34.14
2022-07-29T14:46:10.700Z,34.30
2022-07-29T14:48:38.304Z,34.16
2022-07-29T14:51:06.700Z,34.26
2022-07-29T14:53:34.626Z,34.27
2022-07-29T14:56:15.357Z,34.31
2022-07-29T14:58:51.855Z,34.28
2022-07-29T15:01:19.688Z,34.36
2022-07-29T15:03:47.580Z,34.45
2022-07-29T15:06:15.445Z,34.50
2022-07-29T15:08:42.808Z,34.46
2022-07-29T15:11:09.995Z,34.47
2022-07-29T15:13:37.582Z,34.45
2022-07-29T15:16:06.541Z,34.46
2022-07-29T15:18:33.969Z,34.48
2022-07-29T15:21:03.189Z,34.44
2022-07-29T15:23:30.333Z,34.35
2022-07-29T15:25:58.185Z,34.34
2022-07-29T15:28:25.952Z,34.19
2022-07-29T15:30:53.961Z,34.17
2022-07-29T15:33:21.908Z,34.10
2022-07-29T15:35:49.867Z,34.06
2022-07-29T15:38:17.581Z,34.07
2022-07-29T15:40:45.471Z,34.04
2022-07-29T15:43:13.028Z,34.08
2022-07-29T15:46:03.711Z,34.10
2022-07-29T15:48:32.726Z,34.20
2022-07-29T15:51:01.441Z,34.52
2022-07-29T15:53:29.944Z,34.98
2022-07-29T15:55:57.412Z,35.56
2022-07-29T15:58:24.885Z,35.99
2022-07-29T16:00:52.332Z,36.35
2022-07-29T16:03:19.938Z,36.72
2022-07-29T16:05:47.208Z,36.83
2022-07-29T16:08:14.405Z,36.94
2022-07-29T16:10:41.922Z,37.09
2022-07-29T16:13:09.546Z,36.97
2022-07-29T16:15:36.702Z,37.04
2022-07-29T16:18:04.514Z,37.13
2022-07-29T16:20:32.344Z,37.18
2022-07-29T16:23:01.337Z,36.95
2022-07-29T16:25:50.293Z,36.96
2022-07-29T16:28:17.671Z,36.55
2022-07-29T16:30:45.713Z,36.04
2022-07-29T16:33:13.167Z,35.58
2022-07-29T16:35:42.313Z,35.22
2022-07-29T16:38:09.411Z,34.82
2022-07-29T16:40:37.073Z,34.47
2022-07-29T16:43:04.407Z,34.18
2022-07-29T16:45:45.374Z,33.92
2022-07-29T16:48:15.105Z,33.68
2022-07-29T16:50:45.794Z,33.52
2022-07-29T16:53:13.238Z,33.20
2022-07-29T16:55:41.985Z,33.07
2022-07-29T16:58:11.077Z,32.88
2022-07-29T17:00:39.018Z,32.74
2022-07-29T17:03:06.493Z,32.52
2022-07-29T17:05:53.400Z,32.32
2022-07-29T17:08:22.571Z,32.25
2022-07-29T17:10:50.290Z,32.13
2022-07-29T17:13:22.061Z,32.02
2022-07-29T17:15:51.789Z,31.91
2022-07-29T17:18:19.294Z,31.80
2022-07-29T17:20:46.973Z,31.62
2022-07-29T17:23:14.259Z,31.53
2022-07-29T17:25:41.639Z,31.44
2022-07-29T17:28:08.866Z,31.27
2022-07-29T17:30:36.674Z,31.20
2022-07-29T17:33:03.931Z,31.10
2022-07-29T17:35:49.883Z,30.92
2022-07-29T17:38:17.062Z,30.83
2022-07-29T17:40:44.344Z,30.61
2022-07-29T17:43:11.449Z,30.53
2022-07-29T17:45:48.771Z,30.49
2022-07-29T17:48:20.902Z,30.42
2022-07-29T17:50:48.662Z,30.38
2022-07-29T17:53:16.796Z,30.17
2022-07-29T17:55:48.929Z,30.05
2022-07-29T17:58:16.699Z,30.13
2022-07-29T18:00:43.921Z,29.95
2022-07-29T18:03:11.421Z,29.90
2022-07-29T18:05:38.736Z,29.91
2022-07-29T18:08:06.637Z,29.68
2022-07-29T18:10:34.231Z,29.71
2022-07-29T18:13:03.024Z,29.60
2022-07-29T18:15:31.161Z,29.58
2022-07-29T18:17:58.346Z,29.50
2022-07-29T18:20:26.892Z,29.43
2022-07-29T18:22:54.296Z,29.43
2022-07-29T18:25:22.237Z,29.34
2022-07-29T18:27:50.464Z,29.24
2022-07-29T18:30:17.707Z,29.24
2022-07-29T18:33:05.008Z,29.21
2022-07-29T18:35:33.011Z,29.10
2022-07-29T18:38:02.824Z,29.06
2022-07-29T18:40:31.132Z,29.00
2022-07-29T18:42:58.543Z,28.92
2022-07-29T18:45:28.586Z,28.82
2022-07-29T18:47:57.268Z,28.78
2022-07-29T18:50:29.508Z,28.73
2022-07-29T18:52:59.030Z,28.57
2022-07-29T18:55:26.719Z,28.62
2022-07-29T18:57:55.660Z,28.60
2022-07-29T19:00:24.710Z,28.57
2022-07-29T19:02:52.820Z,28.33
2022-07-29T19:05:20.599Z,28.34
2022-07-29T19:07:47.818Z,28.29
2022-07-29T19:10:14.999Z,28.36
2022-07-29T19:12:42.552Z,28.24
2022-07-29T19:15:10.736Z,28.32
2022-07-29T19:17:39.242Z,28.26
2022-07-29T19:20:07.899Z,28.21
2022-07-29T19:22:35.614Z,28.17
2022-07-29T19:25:03.066Z,28.05
2022-07-29T19:27:30.797Z,28.08
2022-07-29T19:29:59.519Z,28.05
2022-07-29T19:32:27.027Z,27.97
2022-07-29T19:35:12.645Z,27.96
2022-07-29T19:37:40.160Z,27.91
2022-07-29T19:40:07.781Z,27.92
2022-07-29T19:42:35.041Z,27.85
2022-07-29T19:45:02.279Z,27.88
2022-07-29T19:47:30.703Z,27.88
2022-07-29T19:49:57.975Z,27.75
2022-07-29T19:52:25.140Z,27.84
2022-07-29T19:54:52.666Z,27.76
2022-07-29T19:57:20.169Z,27.78
2022-07-29T19:59:47.350Z,27.83
2022-07-29T20:02:14.777Z,27.75
2022-07-29T20:04:53.561Z,27.67
2022-07-29T20:07:20.940Z,27.61
2022-07-29T20:09:49.387Z,27.52
2022-07-29T20:12:19.003Z,27.47
2022-07-29T20:14:46.721Z,27.28
2022-07-29T20:17:14.022Z,27.22
2022-07-29T20:19:42.748Z,27.15
2022-07-29T20:22:10.223Z,26.98
2022-07-29T20:24:38.033Z,26.87
2022-07-29T20:27:05.631Z,26.72
2022-07-29T20:29:41.308Z,26.54
2022-07-29T20:32:08.715Z,26.40
2022-07-29T20:34:36.107Z,26.22
2022-07-29T20:37:08.109Z,26.00
2022-07-29T20:39:35.341Z,25.92
2022-07-29T20:42:04.097Z,25.83
2022-07-29T20:44:31.478Z,25.79
2022-07-29T20:46:59.085Z,25.71
2022-07-29T20:49:26.796Z,25.68
2022-07-29T20:51:54.006Z,25.54
2022-07-29T20:54:21.174Z,25.65
2022-07-29T20:56:48.503Z,25.58
2022-07-29T20:59:17.287Z,25.62
2022-07-29T21:01:45.064Z,25.62
2022-07-29T21:04:12.382Z,25.55
2022-07-29T21:06:39.474Z,25.51
2022-07-29T21:09:07.044Z,25.39
2022-07-29T21:11:44.463Z,25.33
2022-07-29T21:14:24.167Z,25.12
2022-07-29T21:16:51.429Z,25.02
2022-07-29T21:19:18.645Z,25.04
2022-07-29T21:21:45.822Z,24.94
2022-07-29T21:24:13.179Z,24.87
2022-07-29T21:26:40.556Z,24.64
2022-07-29T21:29:08.426Z,24.58
2022-07-29T21:31:35.471Z,24.43
2022-07-29T21:34:02.691Z,24.50
2022-07-29T21:39:17.207Z,24.37
2022-07-29T21:41:44.465Z,24.25
2022-07-29T21:44:11.681Z,24.13
2022-07-29T21:46:38.986Z,24.07
2022-07-29T21:49:06.413Z,24.01
2022-07-29T21:51:33.690Z,23.87
2022-07-29T21:54:01.140Z,23.85
2022-07-29T21:56:29.703Z,23.78
2022-07-29T21:58:58.805Z,23.65
2022-07-29T22:01:26.040Z,23.69
2022-07-29T22:03:53.306Z,23.61
2022-07-29T22:06:20.725Z,23.65
2022-07-29T22:08:48.202Z,23.75
2022-07-29T22:11:15.836Z,23.79
2022-07-29T22:13:43.032Z,23.71
2022-07-29T22:16:14.927Z,23.52
2022-07-29T22:18:45.151Z,23.54
2022-07-29T22:21:13.270Z,23.52
2022-07-29T22:23:40.895Z,23.49
2022-07-29T22:26:08.710Z,23.45
2022-07-29T22:28:36.251Z,23.42
2022-07-29T22:31:07.809Z,23.42
2022-07-29T22:33:35.207Z,23.37
2022-07-29T22:36:02.394Z,23.26
2022-07-29T22:38:29.729Z,23.26
2022-07-29T22:41:00.664Z,23.19
2022-07-29T22:43:29.010Z,23.03
2022-07-29T22:45:56.285Z,22.95
2022-07-29T22:48:23.678Z,23.05
2022-07-29T22:50:51.862Z,22.98
2022-07-29T22:53:19.260Z,23.02
2022-07-29T22:55:46.414Z,22.93
2022-07-29T22:58:13.598Z,22.98
2022-07-29T23:00:41.389Z,22.94
2022-07-29T23:03:08.477Z,22.90
2022-07-29T23:05:36.275Z,22.87
2022-07-29T23:08:03.833Z,22.85
2022-07-29T23:10:31.110Z,22.81
2022-07-29T23:12:58.483Z,22.61
2022-07-29T23:15:26.034Z,22.62
2022-07-29T23:17:53.309Z,22.63
2022-07-29T23:20:20.567Z,22.65
2022-07-29T23:22:47.819Z,22.63
2022-07-29T23:25:15.003Z,22.45
2022-07-29T23:27:42.366Z,22.40
2022-07-29T23:30:10.137Z,22.38
2022-07-29T23:32:37.354Z,22.41
2022-07-29T23:35:05.717Z,22.43
2022-07-29T23:37:33.886Z,22.33
2022-07-29T23:40:00.965Z,22.36
2022-07-29T23:42:28.699Z,22.33
2022-07-29T23:44:55.849Z,22.23
2022-07-29T23:47:23.105Z,22.22
2022-07-29T23:49:50.357Z,22.36
2022-07-29T23:52:19.127Z,22.36
2022-07-29T23:54:46.439Z,22.36
2022-07-29T23:57:13.856Z,22.27
2022-07-29T23:59:41.175Z,22.17
